createdAt,value
2017-10-19T00:00:26.304Z,15.27
2017-10-19T00:01:01.007Z,14.93
2017-10-19T00:01:35.742Z,17.62
2017-10-19T00:02:10.448Z,14.15
2017-10-19T00:02:45.158Z,14.35
2017-10-19T00:03:19.909Z,13.30
2017-10-19T00:03:54.691Z,12.80
2017-10-19T00:04:29.391Z,14.43
2017-10-19T00:05:04.105Z,13.10
2017-10-19T00:05:38.815Z,13.77
2017-10-19T00:06:13.533Z,12.70
2017-10-19T00:06:48.275Z,11.98
2017-10-19T00:07:22.971Z,12.85
2017-10-19T00:07:57.696Z,12.63
2017-10-19T00:08:32.221Z,12.70
2017-10-19T00:09:06.935Z,13.30
2017-10-19T00:09:41.636Z,12.27
2017-10-19T00:10:16.346Z,12.10
2017-10-19T00:10:51.053Z,12.05
2017-10-19T00:11:25.572Z,12.48
2017-10-19T00:12:00.624Z,11.23
2017-10-19T00:12:35.343Z,13.10
2017-10-19T00:13:10.052Z,12.10
2017-10-19T00:13:44.773Z,13.32
2017-10-19T00:14:19.494Z,12.65
2017-10-19T00:14:54.230Z,13.10
2017-10-19T00:15:28.944Z,13.93
2017-10-19T00:16:03.666Z,13.27
2017-10-19T00:16:38.384Z,12.55
2017-10-19T00:17:13.111Z,12.75
2017-10-19T00:17:47.841Z,12.45
2017-10-19T00:18:22.563Z,14.18
2017-10-19T00:18:57.289Z,13.60
2017-10-19T00:19:32.012Z,12.57
2017-10-19T00:20:06.728Z,11.80
2017-10-19T00:20:41.447Z,13.62
2017-10-19T00:21:16.165Z,13.73
2017-10-19T00:21:50.868Z,13.38
2017-10-19T00:22:25.619Z,13.15
2017-10-19T00:23:00.362Z,13.68
2017-10-19T00:23:35.077Z,11.95
2017-10-19T00:24:09.803Z,13.38
2017-10-19T00:24:44.524Z,12.75
2017-10-19T00:25:19.263Z,12.18
2017-10-19T00:25:54.013Z,13.93
2017-10-19T00:26:28.753Z,13.70
2017-10-19T00:27:03.545Z,13.40
2017-10-19T00:27:38.271Z,12.27
2017-10-19T00:28:12.986Z,12.98
2017-10-19T00:28:47.706Z,13.30
2017-10-19T00:29:22.412Z,12.77
2017-10-19T00:29:57.170Z,14.50
2017-10-19T00:30:31.880Z,14.40
2017-10-19T00:31:06.595Z,13.48
2017-10-19T00:31:41.311Z,13.38
2017-10-19T00:32:16.043Z,14.10
2017-10-19T00:32:50.772Z,12.63
2017-10-19T00:33:25.500Z,12.82
2017-10-19T00:34:00.233Z,13.43
2017-10-19T00:34:34.960Z,13.00
2017-10-19T00:35:09.696Z,15.95
2017-10-19T00:35:44.424Z,13.82
2017-10-19T00:36:19.135Z,12.80
2017-10-19T00:36:53.860Z,13.07
2017-10-19T00:37:28.588Z,14.18
2017-10-19T00:38:03.025Z,13.43
2017-10-19T00:38:37.782Z,13.62
2017-10-19T00:39:12.505Z,13.30
2017-10-19T00:39:47.233Z,13.32
2017-10-19T00:41:13.488Z,13.20
2017-10-19T00:41:48.221Z,13.65
2017-10-19T00:42:22.950Z,13.00
2017-10-19T00:42:57.716Z,13.82
2017-10-19T00:43:32.438Z,12.30
2017-10-19T00:44:07.153Z,14.27
2017-10-19T00:44:41.864Z,13.40
2017-10-19T00:45:16.595Z,13.93
2017-10-19T00:45:51.341Z,13.05
2017-10-19T00:46:26.079Z,12.77
2017-10-19T00:47:00.860Z,13.70
2017-10-19T00:47:35.582Z,12.37
2017-10-19T00:48:10.386Z,12.00
2017-10-19T00:48:45.144Z,13.10
2017-10-19T00:49:19.885Z,13.50
2017-10-19T00:49:54.625Z,14.20
2017-10-19T00:50:29.365Z,13.88
2017-10-19T00:51:04.105Z,13.60
2017-10-19T00:51:38.839Z,12.70
2017-10-19T00:52:13.557Z,14.02
2017-10-19T00:52:47.938Z,13.05
2017-10-19T00:53:22.675Z,12.48
2017-10-19T00:53:57.396Z,13.23
2017-10-19T00:54:32.219Z,13.45
2017-10-19T00:55:07.379Z,13.00
2017-10-19T00:55:41.763Z,13.57
2017-10-19T00:56:16.143Z,12.23
2017-10-19T00:56:50.522Z,13.75
2017-10-19T00:57:24.916Z,12.80
2017-10-19T00:57:59.297Z,12.57
2017-10-19T00:58:33.704Z,12.82
2017-10-19T00:59:08.266Z,13.35
2017-10-19T00:59:42.659Z,13.27
2017-10-19T01:00:19.793Z,13.25
2017-10-19T01:00:54.837Z,12.98
2017-10-19T01:01:29.576Z,11.82
2017-10-19T01:02:03.951Z,12.15
2017-10-19T01:02:38.690Z,13.10
2017-10-19T01:03:13.444Z,12.82
2017-10-19T01:03:48.451Z,12.73
2017-10-19T01:04:22.841Z,13.50
2017-10-19T01:04:57.612Z,12.90
2017-10-19T01:05:32.360Z,12.70
2017-10-19T01:06:07.074Z,13.90
2017-10-19T01:06:41.800Z,13.38
2017-10-19T01:07:16.513Z,13.70
2017-10-19T01:07:50.890Z,14.15
2017-10-19T01:08:26.509Z,13.52
2017-10-19T01:09:01.477Z,13.62
2017-10-19T01:09:36.210Z,13.25
2017-10-19T01:10:10.931Z,12.20
2017-10-19T01:10:45.711Z,11.48
2017-10-19T01:11:20.420Z,12.63
2017-10-19T01:11:55.164Z,12.63
2017-10-19T01:12:29.545Z,12.30
2017-10-19T01:13:04.287Z,12.57
2017-10-19T01:13:39.004Z,13.68
2017-10-19T01:14:13.731Z,12.63
2017-10-19T01:14:48.462Z,12.70
2017-10-19T01:15:23.187Z,11.95
2017-10-19T01:15:57.564Z,13.43
2017-10-19T01:16:32.272Z,12.25
2017-10-19T01:17:06.985Z,13.38
2017-10-19T01:17:41.700Z,13.40
2017-10-19T01:18:16.064Z,12.55
2017-10-19T01:18:50.775Z,12.60
2017-10-19T01:19:26.570Z,13.88
2017-10-19T01:20:00.953Z,13.05
2017-10-19T01:20:35.758Z,13.40
2017-10-19T01:21:10.141Z,12.95
2017-10-19T01:21:44.515Z,14.10
2017-10-19T01:22:18.881Z,12.13
2017-10-19T01:22:53.595Z,13.32
2017-10-19T01:23:28.313Z,13.40
2017-10-19T01:24:03.576Z,12.90
2017-10-19T01:24:38.391Z,14.25
2017-10-19T01:25:12.765Z,13.10
2017-10-19T01:25:47.138Z,12.52
2017-10-19T01:26:21.511Z,11.85
2017-10-19T01:26:56.229Z,13.32
2017-10-19T01:27:30.631Z,13.68
2017-10-19T01:28:06.207Z,12.65
2017-10-19T01:28:40.584Z,12.98
2017-10-19T01:29:14.940Z,13.10
2017-10-19T01:29:49.659Z,13.20
2017-10-19T01:30:24.372Z,13.18
2017-10-19T01:30:58.754Z,13.93
2017-10-19T01:31:33.294Z,12.32
2017-10-19T01:32:07.828Z,13.95
2017-10-19T01:32:42.211Z,13.00
2017-10-19T01:33:16.584Z,13.70
2017-10-19T01:33:51.349Z,11.98
2017-10-19T01:34:25.799Z,12.85
2017-10-19T01:35:00.449Z,13.13
2017-10-19T01:35:34.817Z,13.10
2017-10-19T01:36:09.548Z,11.70
2017-10-19T01:36:44.083Z,12.20
2017-10-19T01:37:18.467Z,12.25
2017-10-19T01:37:52.832Z,12.88
2017-10-19T01:38:27.188Z,12.75
2017-10-19T01:39:01.973Z,12.00
2017-10-19T01:39:36.151Z,11.98
2017-10-19T01:40:10.726Z,10.65
2017-10-19T01:40:45.116Z,10.68
2017-10-19T01:41:19.733Z,11.32
2017-10-19T01:41:54.300Z,10.60
2017-10-19T01:42:28.688Z,10.60
2017-10-19T01:43:03.104Z,10.68
2017-10-19T01:43:38.812Z,11.05
2017-10-19T01:44:13.175Z,11.43
2017-10-19T01:44:47.543Z,11.20
2017-10-19T01:45:21.972Z,9.57
2017-10-19T01:45:56.562Z,11.27
2017-10-19T01:46:31.719Z,10.35
2017-10-19T01:47:06.105Z,9.80
2017-10-19T01:47:40.536Z,10.05
2017-10-19T01:48:14.917Z,10.40
2017-10-19T01:48:49.357Z,9.55
2017-10-19T01:49:23.720Z,10.00
2017-10-19T01:50:01.139Z,11.38
2017-10-19T01:50:36.151Z,9.23
2017-10-19T01:51:10.519Z,10.75
2017-10-19T01:51:44.897Z,9.93
2017-10-19T01:52:19.808Z,9.48
2017-10-19T01:52:54.198Z,9.98
2017-10-19T01:53:28.917Z,9.85
2017-10-19T01:54:03.882Z,11.07
2017-10-19T01:54:38.615Z,9.70
2017-10-19T01:55:13.375Z,9.60
2017-10-19T01:55:48.127Z,9.50
2017-10-19T01:56:22.495Z,9.50
2017-10-19T01:56:57.221Z,8.50
2017-10-19T01:57:31.604Z,9.30
2017-10-19T01:58:06.306Z,9.25
2017-10-19T01:58:41.043Z,9.73
2017-10-19T01:59:15.739Z,9.23
2017-10-19T01:59:50.451Z,9.23
2017-10-19T02:00:24.815Z,7.87
2017-10-19T02:00:59.568Z,9.35
2017-10-19T02:01:34.308Z,8.50
2017-10-19T02:02:09.027Z,8.68
2017-10-19T02:02:43.735Z,8.48
2017-10-19T02:03:18.143Z,8.40
2017-10-19T02:03:52.855Z,9.18
2017-10-19T02:04:27.567Z,8.88
2017-10-19T02:05:02.277Z,8.23
2017-10-19T02:05:36.994Z,8.40
2017-10-19T02:06:12.026Z,7.68
2017-10-19T02:06:46.735Z,8.30
2017-10-19T02:07:21.446Z,8.27
2017-10-19T02:07:56.156Z,7.97
2017-10-19T02:08:30.514Z,7.65
2017-10-19T02:09:04.868Z,7.35
2017-10-19T02:09:39.234Z,7.53
2017-10-19T02:10:13.934Z,7.90
2017-10-19T02:10:48.639Z,7.72
2017-10-19T02:11:23.628Z,8.32
2017-10-19T02:11:58.375Z,7.00
2017-10-19T02:12:33.490Z,7.78
2017-10-19T02:13:08.218Z,7.03
2017-10-19T02:13:42.931Z,6.45
2017-10-19T02:14:17.644Z,7.43
2017-10-19T02:14:52.372Z,8.93
2017-10-19T02:15:27.075Z,6.60
2017-10-19T02:16:01.423Z,7.70
2017-10-19T02:16:35.818Z,7.57
2017-10-19T02:17:10.531Z,7.40
2017-10-19T02:17:45.351Z,6.90
2017-10-19T02:18:20.061Z,7.25
2017-10-19T02:18:54.785Z,7.80
2017-10-19T02:19:29.496Z,7.62
2017-10-19T02:20:03.859Z,7.68
2017-10-19T02:20:38.566Z,7.57
2017-10-19T02:21:13.284Z,6.60
2017-10-19T02:21:48.379Z,7.90
2017-10-19T02:22:23.122Z,6.20
2017-10-19T02:22:57.835Z,6.78
2017-10-19T02:23:32.552Z,6.40
2017-10-19T02:24:07.271Z,6.12
2017-10-19T02:24:41.976Z,6.25
2017-10-19T02:25:16.691Z,6.50
2017-10-19T02:25:51.407Z,5.80
2017-10-19T02:26:26.118Z,6.25
2017-10-19T02:27:02.740Z,7.03
2017-10-19T02:27:37.635Z,5.82
2017-10-19T02:28:12.351Z,6.45
2017-10-19T02:28:47.064Z,6.22
2017-10-19T02:29:21.779Z,6.65
2017-10-19T02:29:56.492Z,5.60
2017-10-19T02:30:31.709Z,6.40
2017-10-19T02:31:06.432Z,6.55
2017-10-19T02:31:41.148Z,6.62
2017-10-19T02:32:16.191Z,6.20
2017-10-19T02:32:50.907Z,5.70
2017-10-19T02:33:25.388Z,5.57
2017-10-19T02:34:00.100Z,5.47
2017-10-19T02:34:34.818Z,5.28
2017-10-19T02:35:09.542Z,6.20
2017-10-19T02:35:44.267Z,6.50
2017-10-19T02:36:18.982Z,5.40
2017-10-19T02:36:53.748Z,5.47
2017-10-19T02:37:28.821Z,6.05
2017-10-19T02:38:03.545Z,5.22
2017-10-19T02:38:38.252Z,6.45
2017-10-19T02:39:12.964Z,6.00
2017-10-19T02:39:47.678Z,5.60
2017-10-19T02:40:22.398Z,6.05
2017-10-19T02:40:57.104Z,5.60
2017-10-19T02:41:31.827Z,5.20
2017-10-19T02:42:06.535Z,5.40
2017-10-19T02:42:41.295Z,6.30
2017-10-19T02:43:16.244Z,5.78
2017-10-19T02:43:50.951Z,5.15
2017-10-19T02:44:25.665Z,5.90
2017-10-19T02:45:00.383Z,6.30
2017-10-19T02:45:35.097Z,5.28
2017-10-19T02:46:09.809Z,5.07
2017-10-19T02:46:44.521Z,6.20
2017-10-19T02:47:19.240Z,5.90
2017-10-19T02:47:54.287Z,5.22
2017-10-19T02:48:28.999Z,5.45
2017-10-19T02:49:03.700Z,4.85
2017-10-19T02:49:38.402Z,5.37
2017-10-19T02:50:13.114Z,5.60
2017-10-19T02:50:47.842Z,6.03
2017-10-19T02:51:22.564Z,6.03
2017-10-19T02:51:57.276Z,5.30
2017-10-19T02:52:31.628Z,5.45
2017-10-19T02:53:06.355Z,4.75
2017-10-19T02:53:41.056Z,5.50
2017-10-19T02:54:15.424Z,5.00
2017-10-19T02:54:49.804Z,5.15
2017-10-19T02:55:24.176Z,4.43
2017-10-19T02:55:58.884Z,4.40
2017-10-19T02:56:33.256Z,5.00
2017-10-19T02:57:07.635Z,5.20
2017-10-19T02:57:42.008Z,5.40
2017-10-19T02:58:16.727Z,4.90
2017-10-19T02:58:51.426Z,4.90
2017-10-19T02:59:25.799Z,5.32
2017-10-19T03:00:00.523Z,5.60
2017-10-19T03:00:35.225Z,5.28
2017-10-19T03:01:09.587Z,4.78
2017-10-19T03:01:44.288Z,4.72
2017-10-19T03:02:18.649Z,4.75
2017-10-19T03:02:53.024Z,4.62
2017-10-19T03:03:27.747Z,5.28
2017-10-19T03:04:02.472Z,5.15
2017-10-19T03:04:37.183Z,4.72
2017-10-19T03:05:11.885Z,4.32
2017-10-19T03:05:46.599Z,4.62
2017-10-19T03:06:21.308Z,4.85
2017-10-19T03:06:56.011Z,5.07
2017-10-19T03:07:30.718Z,4.45
2017-10-19T03:08:05.142Z,4.55
2017-10-19T03:08:40.168Z,4.30
2017-10-19T03:09:14.534Z,4.80
2017-10-19T03:09:48.891Z,4.70
2017-10-19T03:10:23.596Z,4.50
2017-10-19T03:10:58.305Z,5.30
2017-10-19T03:11:33.004Z,4.62
2017-10-19T03:12:07.730Z,4.10
2017-10-19T03:12:42.435Z,4.55
2017-10-19T03:13:17.139Z,4.82
2017-10-19T03:13:52.196Z,5.87
2017-10-19T03:14:26.894Z,4.70
2017-10-19T03:15:01.598Z,4.80
2017-10-19T03:15:36.312Z,5.18
2017-10-19T03:16:11.033Z,5.55
2017-10-19T03:16:45.748Z,4.35
2017-10-19T03:17:20.128Z,4.55
2017-10-19T03:17:54.487Z,4.72
2017-10-19T03:18:29.198Z,4.40
2017-10-19T03:19:04.229Z,4.40
2017-10-19T03:19:38.944Z,5.20
2017-10-19T03:20:13.665Z,5.10
2017-10-19T03:20:48.378Z,4.53
2017-10-19T03:21:23.083Z,4.12
2017-10-19T03:21:57.795Z,5.00
2017-10-19T03:22:32.507Z,4.65
2017-10-19T03:23:07.220Z,4.85
2017-10-19T03:23:41.980Z,4.12
2017-10-19T03:24:16.727Z,3.97
2017-10-19T03:24:51.439Z,5.05
2017-10-19T03:25:26.150Z,5.07
2017-10-19T03:26:00.969Z,4.18
2017-10-19T03:26:35.667Z,4.85
2017-10-19T03:27:10.380Z,4.22
2017-10-19T03:27:45.083Z,3.70
2017-10-19T03:28:19.791Z,4.12
2017-10-19T03:28:54.503Z,4.50
2017-10-19T03:29:29.252Z,4.28
2017-10-19T03:30:04.067Z,4.45
2017-10-19T03:30:38.441Z,3.83
2017-10-19T03:31:13.147Z,4.15
2017-10-19T03:31:47.867Z,4.50
2017-10-19T03:32:22.576Z,4.75
2017-10-19T03:32:56.942Z,4.78
2017-10-19T03:33:31.666Z,4.82
2017-10-19T03:34:06.379Z,4.40
2017-10-19T03:34:41.496Z,4.65
2017-10-19T03:35:16.211Z,3.90
2017-10-19T03:35:51.003Z,4.80
2017-10-19T03:36:25.723Z,4.47
2017-10-19T03:37:00.119Z,5.28
2017-10-19T03:37:34.824Z,4.32
2017-10-19T03:38:09.552Z,4.20
2017-10-19T03:38:44.272Z,4.43
2017-10-19T03:39:18.973Z,4.05
2017-10-19T03:39:54.066Z,4.40
2017-10-19T03:40:28.777Z,4.00
2017-10-19T03:41:03.475Z,4.47
2017-10-19T03:41:37.836Z,4.55
2017-10-19T03:42:12.584Z,4.80
2017-10-19T03:42:46.959Z,4.18
2017-10-19T03:43:21.670Z,4.55
2017-10-19T03:43:56.452Z,4.15
2017-10-19T03:44:30.829Z,4.55
2017-10-19T03:45:05.220Z,4.65
2017-10-19T03:45:39.586Z,4.20
2017-10-19T03:46:14.329Z,4.47
2017-10-19T03:46:49.029Z,4.40
2017-10-19T03:47:23.741Z,4.50
2017-10-19T03:47:58.111Z,4.50
2017-10-19T03:48:32.847Z,4.40
2017-10-19T03:49:07.548Z,3.53
2017-10-19T03:49:41.922Z,4.22
2017-10-19T03:50:17.046Z,4.57
2017-10-19T03:50:51.743Z,3.30
2017-10-19T03:51:26.463Z,4.32
2017-10-19T03:52:01.182Z,4.60
2017-10-19T03:52:35.904Z,4.00
2017-10-19T03:53:10.609Z,4.12
2017-10-19T03:53:44.967Z,4.68
2017-10-19T03:54:19.329Z,4.55
2017-10-19T03:54:54.031Z,4.00
2017-10-19T03:55:28.735Z,4.20
2017-10-19T03:56:03.428Z,4.47
2017-10-19T03:56:38.128Z,3.72
2017-10-19T03:57:12.823Z,4.25
2017-10-19T03:57:47.531Z,4.30
2017-10-19T03:58:22.243Z,4.30
2017-10-19T03:58:56.959Z,3.62
2017-10-19T03:59:31.712Z,3.70
2017-10-19T04:00:06.468Z,4.28
2017-10-19T04:00:40.868Z,4.15
2017-10-19T04:01:15.570Z,3.85
2017-10-19T04:01:50.285Z,4.40
2017-10-19T04:02:25.076Z,4.15
2017-10-19T04:02:59.792Z,3.83
2017-10-19T04:03:34.687Z,4.00
2017-10-19T04:04:09.393Z,3.85
2017-10-19T04:04:44.095Z,4.20
2017-10-19T04:05:18.811Z,5.12
2017-10-19T04:05:53.532Z,4.07
2017-10-19T04:06:28.240Z,4.47
2017-10-19T04:07:02.951Z,3.45
2017-10-19T04:07:37.667Z,5.18
2017-10-19T04:08:12.498Z,4.60
2017-10-19T04:08:47.204Z,4.15
2017-10-19T04:09:21.567Z,3.83
2017-10-19T04:09:56.288Z,3.67
2017-10-19T04:10:31.006Z,3.67
2017-10-19T04:11:05.743Z,3.90
2017-10-19T04:11:41.006Z,4.22
2017-10-19T04:12:15.707Z,4.05
2017-10-19T04:12:50.420Z,4.25
2017-10-19T04:13:25.125Z,3.78
2017-10-19T04:13:59.824Z,4.10
2017-10-19T04:14:34.543Z,4.28
2017-10-19T04:15:09.257Z,3.95
2017-10-19T04:15:43.972Z,4.30
2017-10-19T04:16:18.709Z,4.07
2017-10-19T04:16:53.415Z,4.18
2017-10-19T04:17:28.111Z,3.90
2017-10-19T04:18:02.828Z,3.75
2017-10-19T04:18:37.985Z,4.07
2017-10-19T04:19:12.703Z,4.07
2017-10-19T04:19:47.409Z,4.25
2017-10-19T04:20:22.190Z,4.10
2017-10-19T04:20:56.923Z,4.28
2017-10-19T04:21:31.657Z,4.62
2017-10-19T04:22:06.470Z,4.20
2017-10-19T04:22:41.171Z,4.37
2017-10-19T04:23:15.882Z,3.78
2017-10-19T04:23:50.598Z,4.50
2017-10-19T04:24:25.292Z,3.92
2017-10-19T04:25:00.011Z,4.55
2017-10-19T04:25:34.722Z,4.10
2017-10-19T04:26:09.431Z,3.75
2017-10-19T04:26:44.163Z,3.55
2017-10-19T04:27:18.872Z,4.00
2017-10-19T04:27:53.570Z,3.70
2017-10-19T04:28:28.286Z,4.00
2017-10-19T04:29:03.000Z,3.62
2017-10-19T04:29:37.690Z,4.15
2017-10-19T04:30:12.415Z,4.12
2017-10-19T04:30:47.125Z,3.62
2017-10-19T04:31:21.839Z,4.57
2017-10-19T04:31:56.570Z,4.80
2017-10-19T04:32:31.088Z,4.30
2017-10-19T04:33:05.791Z,3.78
2017-10-19T04:33:40.508Z,4.97
2017-10-19T04:34:15.219Z,4.25
2017-10-19T04:34:49.933Z,4.60
2017-10-19T04:35:24.636Z,4.25
2017-10-19T04:35:59.351Z,4.00
2017-10-19T04:36:34.064Z,4.70
2017-10-19T04:37:09.159Z,3.75
2017-10-19T04:37:43.875Z,4.50
2017-10-19T04:38:18.597Z,4.55
2017-10-19T04:38:53.339Z,4.30
2017-10-19T04:39:28.056Z,4.32
2017-10-19T04:40:02.966Z,4.30
2017-10-19T04:40:37.674Z,3.90
2017-10-19T04:41:12.414Z,4.28
2017-10-19T04:41:47.152Z,4.40
2017-10-19T04:42:22.199Z,4.30
2017-10-19T04:42:56.924Z,3.92
2017-10-19T04:43:31.630Z,3.80
2017-10-19T04:44:06.362Z,3.95
2017-10-19T04:44:41.080Z,4.12
2017-10-19T04:45:15.798Z,3.78
2017-10-19T04:45:50.527Z,4.75
2017-10-19T04:46:25.263Z,4.68
2017-10-19T04:46:59.784Z,4.22
2017-10-19T04:47:34.768Z,3.97
2017-10-19T04:48:09.479Z,4.07
2017-10-19T04:48:44.196Z,4.40
2017-10-19T04:49:18.739Z,3.90
2017-10-19T04:49:53.463Z,4.53
2017-10-19T04:50:28.177Z,4.20
2017-10-19T04:51:02.886Z,4.78
2017-10-19T04:51:37.476Z,4.97
2017-10-19T04:52:12.171Z,4.57
2017-10-19T04:52:46.929Z,4.40
2017-10-19T04:53:21.639Z,4.10
2017-10-19T04:53:56.358Z,4.43
2017-10-19T04:54:31.071Z,4.50
2017-10-19T04:55:05.776Z,4.47
2017-10-19T04:55:40.493Z,3.60
2017-10-19T04:56:15.237Z,3.50
2017-10-19T04:56:49.958Z,4.62
2017-10-19T04:57:24.658Z,4.47
2017-10-19T04:57:59.410Z,4.12
2017-10-19T04:58:34.149Z,4.10
2017-10-19T04:59:08.851Z,4.05
2017-10-19T04:59:43.560Z,5.00
2017-10-19T05:00:18.273Z,4.22
2017-10-19T05:00:52.988Z,4.93
2017-10-19T05:01:27.700Z,3.92
2017-10-19T05:02:02.552Z,4.35
2017-10-19T05:02:37.272Z,4.03
2017-10-19T05:03:12.004Z,4.60
2017-10-19T05:03:46.728Z,5.30
2017-10-19T05:04:21.263Z,5.30
2017-10-19T05:04:55.978Z,5.10
2017-10-19T05:05:30.701Z,4.45
2017-10-19T05:06:05.412Z,4.20
2017-10-19T05:06:40.127Z,4.80
2017-10-19T05:07:14.832Z,4.80
2017-10-19T05:07:49.370Z,4.70
2017-10-19T05:08:24.407Z,4.40
2017-10-19T05:08:59.111Z,4.55
2017-10-19T05:09:33.827Z,4.45
2017-10-19T05:10:08.200Z,5.25
2017-10-19T05:10:42.575Z,4.82
2017-10-19T05:11:16.949Z,4.35
2017-10-19T05:11:51.316Z,5.37
2017-10-19T05:12:25.684Z,4.35
2017-10-19T05:13:00.031Z,4.32
2017-10-19T05:13:34.436Z,4.45
2017-10-19T05:14:08.808Z,4.53
2017-10-19T05:14:43.543Z,4.97
2017-10-19T05:15:17.920Z,3.90
2017-10-19T05:15:52.612Z,4.25
2017-10-19T05:16:27.357Z,4.55
2017-10-19T05:17:01.795Z,4.70
2017-10-19T05:17:36.555Z,4.05
2017-10-19T05:18:14.141Z,4.30
2017-10-19T05:18:48.510Z,4.65
2017-10-19T05:19:23.220Z,4.90
2017-10-19T05:19:57.929Z,4.82
2017-10-19T05:20:32.639Z,5.47
2017-10-19T05:21:07.399Z,4.97
2017-10-19T05:21:42.111Z,4.47
2017-10-19T05:22:16.819Z,4.53
2017-10-19T05:22:51.532Z,4.70
2017-10-19T05:23:25.900Z,5.78
2017-10-19T05:24:00.887Z,4.90
2017-10-19T05:24:35.601Z,5.22
2017-10-19T05:25:10.349Z,4.40
2017-10-19T05:25:45.065Z,4.75
2017-10-19T05:26:19.775Z,5.45
2017-10-19T05:26:54.496Z,4.80
2017-10-19T05:27:29.216Z,4.87
2017-10-19T05:28:03.922Z,5.25
2017-10-19T05:28:39.256Z,4.78
2017-10-19T05:29:13.999Z,4.80
2017-10-19T05:29:48.706Z,4.55
2017-10-19T05:30:23.425Z,5.40
2017-10-19T05:30:57.784Z,4.40
2017-10-19T05:31:32.418Z,5.93
2017-10-19T05:32:07.158Z,5.40
2017-10-19T05:32:41.861Z,4.65
2017-10-19T05:33:16.595Z,5.20
2017-10-19T05:33:51.403Z,4.80
2017-10-19T05:34:26.475Z,4.90
2017-10-19T05:35:01.201Z,4.43
2017-10-19T05:35:35.923Z,5.03
2017-10-19T05:36:10.638Z,4.72
2017-10-19T05:36:45.384Z,4.95
2017-10-19T05:37:20.092Z,4.68
2017-10-19T05:37:54.828Z,5.50
2017-10-19T05:38:29.541Z,5.53
2017-10-19T05:39:03.921Z,5.07
2017-10-19T05:39:38.645Z,5.12
2017-10-19T05:40:13.371Z,5.55
2017-10-19T05:40:48.345Z,5.60
2017-10-19T05:41:23.064Z,5.80
2017-10-19T05:41:57.777Z,5.78
2017-10-19T05:42:34.367Z,5.00
2017-10-19T05:43:09.079Z,6.00
2017-10-19T05:43:43.851Z,5.50
2017-10-19T05:44:18.572Z,5.55
2017-10-19T05:44:53.324Z,5.43
2017-10-19T05:45:28.034Z,6.40
2017-10-19T05:46:02.741Z,6.72
2017-10-19T05:46:37.461Z,6.03
2017-10-19T05:47:12.183Z,6.47
2017-10-19T05:47:46.879Z,7.45
2017-10-19T05:48:21.601Z,5.90
2017-10-19T05:48:56.349Z,6.50
2017-10-19T05:49:30.914Z,6.40
2017-10-19T05:50:05.899Z,7.20
2017-10-19T05:50:40.630Z,6.55
2017-10-19T05:51:14.999Z,7.45
2017-10-19T05:51:49.713Z,7.18
2017-10-19T05:52:24.428Z,7.43
2017-10-19T05:52:59.142Z,7.32
2017-10-19T05:53:33.855Z,6.93
2017-10-19T05:54:08.608Z,7.57
2017-10-19T05:54:43.319Z,7.75
2017-10-19T05:55:18.070Z,6.78
2017-10-19T05:55:52.788Z,6.37
2017-10-19T05:56:27.154Z,7.70
2017-10-19T05:57:01.886Z,7.82
2017-10-19T05:57:36.590Z,7.62
2017-10-19T05:58:11.301Z,7.50
2017-10-19T05:58:45.668Z,7.93
2017-10-19T05:59:20.249Z,7.15
2017-10-19T05:59:54.979Z,6.90
2017-10-19T06:00:29.704Z,7.62
2017-10-19T06:01:04.431Z,7.50
2017-10-19T06:01:39.139Z,7.00
2017-10-19T06:02:13.880Z,7.15
2017-10-19T06:02:48.585Z,6.50
2017-10-19T06:03:23.324Z,7.30
2017-10-19T06:03:58.030Z,7.05
2017-10-19T06:04:32.748Z,7.15
2017-10-19T06:05:07.486Z,7.10
2017-10-19T06:05:42.226Z,7.37
2017-10-19T06:06:16.931Z,7.35
2017-10-19T06:06:51.689Z,7.50
2017-10-19T06:07:26.407Z,8.02
2017-10-19T06:08:01.132Z,8.00
2017-10-19T06:08:35.841Z,6.78
2017-10-19T06:09:10.931Z,8.20
2017-10-19T06:09:45.637Z,8.38
2017-10-19T06:10:20.345Z,8.70
2017-10-19T06:10:55.076Z,7.37
2017-10-19T06:11:29.783Z,7.40
2017-10-19T06:12:04.482Z,8.10
2017-10-19T06:12:39.179Z,7.78
2017-10-19T06:13:13.980Z,7.25
2017-10-19T06:13:48.707Z,8.23
2017-10-19T06:14:23.469Z,7.53
2017-10-19T06:14:58.172Z,7.05
2017-10-19T06:15:32.879Z,7.30
2017-10-19T06:16:07.643Z,8.15
2017-10-19T06:16:42.351Z,7.87
2017-10-19T06:17:16.717Z,7.72
2017-10-19T06:17:51.428Z,8.35
2017-10-19T06:18:26.149Z,7.90
2017-10-19T06:19:00.856Z,7.85
2017-10-19T06:19:35.568Z,7.62
2017-10-19T06:20:10.271Z,9.38
2017-10-19T06:20:44.981Z,8.13
2017-10-19T06:21:19.743Z,7.32
2017-10-19T06:21:54.735Z,8.73
2017-10-19T06:22:29.452Z,9.50
2017-10-19T06:23:04.186Z,9.27
2017-10-19T06:23:38.884Z,8.65
2017-10-19T06:24:13.587Z,9.85
2017-10-19T06:24:48.304Z,10.10
2017-10-19T06:25:23.023Z,9.73
2017-10-19T06:25:57.729Z,9.88
2017-10-19T06:26:32.736Z,8.85
2017-10-19T06:27:07.454Z,8.15
2017-10-19T06:27:42.176Z,8.65
2017-10-19T06:28:16.892Z,8.55
2017-10-19T06:28:51.605Z,7.60
2017-10-19T06:29:26.390Z,8.20
2017-10-19T06:30:01.091Z,8.30
2017-10-19T06:30:35.808Z,8.80
2017-10-19T06:31:10.518Z,7.85
2017-10-19T06:31:45.249Z,8.60
2017-10-19T06:32:19.968Z,7.50
2017-10-19T06:32:54.682Z,8.27
2017-10-19T06:33:29.406Z,8.45
2017-10-19T06:34:04.117Z,7.62
2017-10-19T06:34:38.855Z,7.62
2017-10-19T06:35:13.558Z,7.62
2017-10-19T06:35:48.277Z,7.15
2017-10-19T06:36:22.988Z,6.95
2017-10-19T06:36:57.743Z,7.82
2017-10-19T06:37:32.469Z,7.40
2017-10-19T06:38:07.177Z,7.25
2017-10-19T06:38:41.879Z,8.90
2017-10-19T06:39:16.636Z,9.90
2017-10-19T06:39:51.348Z,7.57
2017-10-19T06:40:26.088Z,8.88
2017-10-19T06:41:00.807Z,8.45
2017-10-19T06:41:35.586Z,7.70
2017-10-19T06:42:10.325Z,8.40
2017-10-19T06:42:45.045Z,8.38
2017-10-19T06:43:19.758Z,7.50
2017-10-19T06:43:54.478Z,7.57
2017-10-19T06:44:29.218Z,6.60
2017-10-19T06:45:03.939Z,8.02
2017-10-19T06:45:38.660Z,6.50
2017-10-19T06:46:13.368Z,6.90
2017-10-19T06:46:48.081Z,7.37
2017-10-19T06:47:22.831Z,7.43
2017-10-19T06:47:57.546Z,7.43
2017-10-19T06:48:32.258Z,7.35
2017-10-19T06:49:06.973Z,6.55
2017-10-19T06:49:41.687Z,6.60
2017-10-19T06:50:16.412Z,7.85
2017-10-19T06:50:51.113Z,5.80
2017-10-19T06:51:25.858Z,7.20
2017-10-19T06:52:00.568Z,6.60
2017-10-19T06:52:35.308Z,7.40
2017-10-19T06:53:10.019Z,7.30
2017-10-19T06:53:44.736Z,6.57
2017-10-19T06:54:19.447Z,6.30
2017-10-19T06:54:54.157Z,6.55
2017-10-19T06:55:28.877Z,6.95
2017-10-19T06:56:03.576Z,7.40
2017-10-19T06:56:38.311Z,6.45
2017-10-19T06:57:13.031Z,6.47
2017-10-19T06:57:47.760Z,5.70
2017-10-19T06:58:22.483Z,6.30
2017-10-19T06:58:57.188Z,6.15
2017-10-19T06:59:31.888Z,6.80
2017-10-19T07:00:06.599Z,6.87
2017-10-19T07:00:41.316Z,6.35
2017-10-19T07:01:16.036Z,6.50
2017-10-19T07:01:50.752Z,6.60
2017-10-19T07:02:25.505Z,6.05
2017-10-19T07:03:00.242Z,6.15
2017-10-19T07:03:34.951Z,6.72
2017-10-19T07:04:09.721Z,6.22
2017-10-19T07:04:44.483Z,6.43
2017-10-19T07:05:19.198Z,7.30
2017-10-19T07:05:53.658Z,6.63
2017-10-19T07:06:28.355Z,5.80
2017-10-19T07:07:03.103Z,6.32
2017-10-19T07:07:37.468Z,5.95
2017-10-19T07:08:12.207Z,5.53
2017-10-19T07:08:46.913Z,5.95
2017-10-19T07:09:21.616Z,6.00
2017-10-19T07:09:56.327Z,5.72
2017-10-19T07:10:30.424Z,5.90
2017-10-19T07:11:05.139Z,6.65
2017-10-19T07:11:39.855Z,6.20
2017-10-19T07:12:14.570Z,6.95
2017-10-19T07:12:49.013Z,6.60
2017-10-19T07:13:23.757Z,6.78
2017-10-19T07:13:58.472Z,6.45
2017-10-19T07:14:33.181Z,6.18
2017-10-19T07:15:07.895Z,6.37
2017-10-19T07:15:42.258Z,5.68
2017-10-19T07:16:17.074Z,5.93
2017-10-19T07:16:51.803Z,6.25
2017-10-19T07:17:26.519Z,6.20
2017-10-19T07:18:01.240Z,5.80
2017-10-19T07:18:35.984Z,6.28
2017-10-19T07:19:10.440Z,6.18
2017-10-19T07:19:45.153Z,5.82
2017-10-19T07:20:19.865Z,5.65
2017-10-19T07:20:54.576Z,5.40
2017-10-19T07:21:29.276Z,5.85
2017-10-19T07:22:03.717Z,6.83
2017-10-19T07:22:38.434Z,7.10
2017-10-19T07:23:13.150Z,6.62
2017-10-19T07:23:47.883Z,6.57
2017-10-19T07:24:22.588Z,7.18
2017-10-19T07:24:57.313Z,8.15
2017-10-19T07:25:32.034Z,6.47
2017-10-19T07:26:06.123Z,6.50
2017-10-19T07:26:40.827Z,5.82
2017-10-19T07:27:15.195Z,6.53
2017-10-19T07:27:50.019Z,7.40
2017-10-19T07:28:24.748Z,7.60
2017-10-19T07:28:59.477Z,7.87
2017-10-19T07:29:34.179Z,6.30
2017-10-19T07:30:08.890Z,8.38
2017-10-19T07:30:43.604Z,7.72
2017-10-19T07:31:18.039Z,6.77
2017-10-19T07:31:52.762Z,6.03
2017-10-19T07:32:27.482Z,6.25
2017-10-19T07:33:02.221Z,6.43
2017-10-19T07:33:36.575Z,5.75
2017-10-19T07:34:11.301Z,5.93
2017-10-19T07:34:45.678Z,6.70
2017-10-19T07:35:20.388Z,5.90
2017-10-19T07:35:55.107Z,6.00
2017-10-19T07:36:29.710Z,7.13
2017-10-19T07:37:04.424Z,6.65
2017-10-19T07:37:38.801Z,6.05
2017-10-19T07:38:13.520Z,6.00
2017-10-19T07:38:48.233Z,5.70
2017-10-19T07:39:23.288Z,6.07